DTTJ/DJE METAR and TAF weather

Enter ICAO airport designator
Station Type Date Time Source
DTTJ METAR 2019/02/20 23:30 UTC NOAA

DTTJ 202330Z 05008KT 9999 FEW030 13/11 Q1024 NOSIG


Station Type Date Time Source
DTTJ Decoded METAR 2019/02/20 23:30 UTC NOAA

Djerba Mellita, Tunisia (DTTJ) 33-52N 010-46E 4M
Feb 20, 2019 - 06:30 PM EST / 2019.02.20 2330 UTC
Wind: from the NE (050 degrees) at 9 MPH (8 KT):0
Visibility: greater than 7 mile(s):0
Sky conditions: mostly clear
Temperature: 55 F (13 C)
Dew Point: 51 F (11 C)
Relative Humidity: 87%
Pressure (altimeter): 30.24 in. Hg (1024 hPa)
ob: DTTJ 202330Z 05008KT 9999 FEW030 13/11 Q1024 NOSIG
cycle: 23

Station Type Date Time Source
DTTJ TAF 2019/02/20 18:15 UTC NOAA

TAF DTTJ 201700Z 2018/2118 06014KT 9999 FEW030 PROB40
TEMPO 2102/2108 4000 BR


Example: see airport list